Latest Weather Observations for Inner Beacon

IDQ60801

Issued at 10:05 pm EST Wednesday 22 October 2014 (issued every 30 minutes, with the page automatically refreshed every 10 minutes)

About weather observations | Map of weather stations | Latest weather observations for QLD | Other Formats
Station Details ID: 040926 Name: INNER RECIPROCAL MARKER Lat: -27.26 Lon: 153.24 Height: 20.0 m
Data from the previous 72 hours. | See also: Recent months for locations in Queensland
Date/Time
EST
Temp
°C
App
Temp
°C
Dew
Point
Rel
Hum
%
Delta-T
°C
Wind Press
QNH
hPa
Press
MSL
hPa
Rain
since 9 am
mm
Dir
 
Spd
km/h
Gust
km/h
Spd
kts
Gust
kts
22/10:00pm - - - - - ESE 17 22 9 12 - - -
22/09:30pm - - - - - ESE 20 26 11 14 - - -
22/09:00pm - - - - - ESE 20 26 11 14 - - -
22/08:30pm - - - - - ESE 20 30 11 16 - - -
22/08:00pm - - - - - ESE 20 30 11 16 - - -
22/07:30pm - - - - - ESE 22 26 12 14 - - -
22/07:00pm - - - - - ESE 20 28 11 15 - - -
22/06:30pm - - - - - ESE 22 26 12 14 - - -
22/06:00pm - - - - - ESE 24 28 13 15 - - -
22/05:30pm - - - - - ESE 22 33 12 18 - - -
22/05:00pm - - - - - ESE 26 32 14 17 - - -
22/04:30pm - - - - - ESE 28 33 15 18 - - -
22/04:00pm - - - - - ESE 26 32 14 17 - - -
22/03:30pm - - - - - ESE 28 35 15 19 - - -
22/03:00pm - - - - - ESE 30 37 16 20 - - -
22/02:30pm - - - - - ESE 28 35 15 19 - - -
22/02:00pm - - - - - ESE 24 32 13 17 - - -
22/01:30pm - - - - - ESE 28 32 15 17 - - -
22/01:00pm - - - - - ESE 32 37 17 20 - - -
22/12:30pm - - - - - SE 32 39 17 21 - - -
22/12:00pm - - - - - SE 22 33 12 18 - - -
22/11:30am - - - - - SSE 22 28 12 15 - - -
22/11:00am - - - - - S 26 30 14 16 - - -
22/10:30am - - - - - SSE 24 32 13 17 - - -
22/10:00am - - - - - SSE 26 32 14 17 - - -
22/09:30am - - - - - SSE 22 33 12 18 - - -
22/09:00am - - - - - SSE 24 32 13 17 - - -
22/08:30am - - - - - S 26 33 14 18 - - -
22/08:00am - - - - - S 24 32 13 17 - - -
22/07:30am - - - - - S 28 37 15 20 - - -
22/07:00am - - - - - S 20 24 11 13 - - -
22/06:30am - - - - - S 26 32 14 17 - - -
22/06:00am - - - - - S 28 35 15 19 - - -
22/05:30am - - - - - S 24 32 13 17 - - -
22/05:00am - - - - - S 28 32 15 17 - - -
22/04:30am - - - - - S 26 32 14 17 - - -
22/04:00am - - - - - S 28 33 15 18 - - -
22/03:30am - - - - - S 26 32 14 17 - - -
22/03:00am - - - - - S 26 33 14 18 - - -
22/02:30am - - - - - S 28 32 15 17 - - -
22/02:00am - - - - - S 30 37 16 20 - - -
22/01:30am - - - - - SSE 30 41 16 22 - - -
22/01:00am - - - - - SSE 28 37 15 20 - - -
22/12:30am - - - - - S 32 39 17 21 - - -
22/12:00am - - - - - S 28 33 15 18 - - -
 
Date/Time
EST
Temp
°C
App
Temp
°C
Dew
Point
Rel
Hum
%
Delta-T
°C
Wind Press
QNH
hPa
Press
MSL
hPa
Rain
since 9 am
mm
Dir
 
Spd
km/h
Gust
km/h
Spd
kts
Gust
kts
21/11:30pm - - - - - S 32 37 17 20 - - -
21/11:00pm - - - - - SSE 33 37 18 20 - - -
21/10:30pm - - - - - SSE 28 33 15 18 - - -
21/10:08pm - - - - - SSE 35 56 19 30 - - -
21/10:00pm - - - - - S 32 35 17 19 - - -
21/09:30pm - - - - - SSE 35 44 19 24 - - -
21/09:00pm - - - - - SSE 43 52 23 28 - - -
21/08:30pm - - - - - SSE 48 57 26 31 - - -
21/08:00pm - - - - - SSE 50 61 27 33 - - -
21/07:30pm - - - - - SSE 48 56 26 30 - - -
21/07:00pm - - - - - SSE 44 54 24 29 - - -
21/06:30pm - - - - - SSE 44 54 24 29 - - -
21/06:00pm - - - - - SSE 46 56 25 30 - - -
21/05:30pm - - - - - SSE 44 54 24 29 - - -
21/05:00pm - - - - - SSE 44 54 24 29 - - -
21/04:30pm - - - - - SSE 48 57 26 31 - - -
21/04:00pm - - - - - SSE 50 56 27 30 - - -
21/03:30pm - - - - - SSE 48 57 26 31 - - -
21/03:00pm - - - - - SSE 46 56 25 30 - - -
21/02:30pm - - - - - SSE 50 57 27 31 - - -
21/02:00pm - - - - - SSE 44 52 24 28 - - -
21/01:30pm - - - - - SSE 43 50 23 27 - - -
21/01:00pm - - - - - SSE 41 48 22 26 - - -
21/12:30pm - - - - - SSE 41 50 22 27 - - -
21/12:00pm - - - - - SSE 41 48 22 26 - - -
21/11:30am - - - - - SSE 44 52 24 28 - - -
21/11:00am - - - - - SSE 44 52 24 28 - - -
21/10:30am - - - - - SSE 43 50 23 27 - - -
21/10:00am - - - - - SSE 44 52 24 28 - - -
21/09:30am - - - - - S 44 54 24 29 - - -
21/09:00am - - - - - S 43 50 23 27 - - -
21/08:30am - - - - - S 41 50 22 27 - - -
21/08:00am - - - - - SSE 32 37 17 20 - - -
21/07:30am - - - - - SE 26 33 14 18 - - -
21/07:00am - - - - - SE 28 35 15 19 - - -
21/06:30am - - - - - SE 32 37 17 20 - - -
21/06:00am - - - - - S 35 43 19 23 - - -
21/05:30am - - - - - S 35 43 19 23 - - -
21/05:00am - - - - - S 24 28 13 15 - - -
21/04:30am - - - - - SSE 24 28 13 15 - - -
21/04:00am - - - - - SSE 19 24 10 13 - - -
21/03:30am - - - - - SE 17 19 9 10 - - -
21/03:00am - - - - - SE 15 19 8 10 - - -
21/02:30am - - - - - SSE 19 22 10 12 - - -
21/02:00am - - - - - SSE 22 26 12 14 - - -
21/01:30am - - - - - SSE 19 22 10 12 - - -
21/01:00am - - - - - SSE 17 20 9 11 - - -
21/12:30am - - - - - SE 17 20 9 11 - - -
21/12:00am - - - - - SE 20 24 11 13 - - -
 
Date/Time
EST
Temp
°C
App
Temp
°C
Dew
Point
Rel
Hum
%
Delta-T
°C
Wind Press
QNH
hPa
Press
MSL
hPa
Rain
since 9 am
mm
Dir
 
Spd
km/h
Gust
km/h
Spd
kts
Gust
kts
20/11:30pm - - - - - SE 22 28 12 15 - - -
20/11:00pm - - - - - SSE 22 26 12 14 - - -
20/10:30pm - - - - - SSE 24 26 13 14 - - -
20/10:00pm - - - - - SSE 20 24 11 13 - - -
20/09:30pm - - - - - SE 22 26 12 14 - - -
20/09:00pm - - - - - SE 22 26 12 14 - - -
20/08:30pm - - - - - SE 20 26 11 14 - - -
20/08:00pm - - - - - ESE 19 22 10 12 - - -
20/07:30pm - - - - - ESE 17 20 9 11 - - -
20/07:00pm - - - - - E 17 20 9 11 - - -
20/06:30pm - - - - - E 19 22 10 12 - - -
20/06:00pm - - - - - E 17 20 9 11 - - -
20/05:30pm - - - - - E 19 20 10 11 - - -
20/05:00pm - - - - - E 19 22 10 12 - - -
20/04:30pm - - - - - E 17 20 9 11 - - -
20/04:00pm - - - - - NE 19 22 10 12 - - -
20/03:30pm - - - - - NE 19 22 10 12 - - -
20/03:00pm - - - - - NE 17 20 9 11 - - -
20/02:30pm - - - - - NE 17 19 9 10 - - -
20/02:00pm - - - - - NE 15 17 8 9 - - -
20/01:30pm - - - - - NE 11 15 6 8 - - -
20/01:00pm - - - - - NE 9 13 5 7 - - -
20/12:30pm - - - - - NNE 6 7 3 4 - - -
20/12:00pm - - - - - N 6 9 3 5 - - -
20/11:30am - - - - - N 4 7 2 4 - - -
20/11:00am - - - - - N 6 9 3 5 - - -
20/10:30am - - - - - CALM 0 6 0 3 - - -
20/10:00am - - - - - N 2 6 1 3 - - -
20/09:30am - - - - - N 2 6 1 3 - - -
20/09:00am - - - - - CALM 0 2 0 1 - - -
20/08:30am - - - - - ENE 4 6 2 3 - - -
20/08:00am - - - - - SSE 6 7 3 4 - - -
20/07:30am - - - - - S 7 11 4 6 - - -
20/07:00am - - - - - ESE 4 7 2 4 - - -
20/06:30am - - - - - ESE 6 9 3 5 - - -
20/06:00am - - - - - E 7 9 4 5 - - -
20/05:30am - - - - - ESE 4 6 2 3 - - -
20/05:00am - - - - - ESE 7 11 4 6 - - -
20/04:30am - - - - - ESE 7 9 4 5 - - -
20/04:00am - - - - - E 7 11 4 6 - - -
20/03:30am - - - - - E 7 11 4 6 - - -
20/03:00am - - - - - E 9 13 5 7 - - -
20/02:30am - - - - - E 9 13 5 7 - - -
20/02:00am - - - - - E 11 15 6 8 - - -
20/01:30am - - - - - E 13 17 7 9 - - -
20/01:00am - - - - - E 13 17 7 9 - - -
20/12:30am - - - - - ENE 13 17 7 9 - - -
20/12:00am - - - - - E 15 19 8 10 - - -
 
Date/Time
EST
Temp
°C
App
Temp
°C
Dew
Point
Rel
Hum
%
Delta-T
°C
Wind Press
QNH
hPa
Press
MSL
hPa
Rain
since 9 am
mm
Dir
 
Spd
km/h
Gust
km/h
Spd
kts
Gust
kts
19/11:30pm - - - - - E 11 13 6 7 - - -
19/11:00pm - - - - - ENE 17 20 9 11 - - -
19/10:30pm - - - - - E 15 19 8 10 - - -

Other Formats:

Comma delimited format used in spreadsheet applications
http://www.bom.gov.au/fwo/IDQ60801/IDQ60801.94590.axf

JavaScript Object Notation format (JSON) in row-major order
http://www.bom.gov.au/fwo/IDQ60801/IDQ60801.94590.json